sensor_id;sensor_type;location;lat;lon;timestamp;pressure;altitude;pressure_sealevel;temperature;humidity
61113;BME280;47184;57.998;56.184;2023-05-02T00:00:46;100081.06;;;11.85;48.29
61113;BME280;47184;57.998;56.184;2023-05-02T00:03:12;100069.47;;;11.78;48.27
61113;BME280;47184;57.998;56.184;2023-05-02T00:05:39;100071.78;;;11.73;48.62
61113;BME280;47184;57.998;56.184;2023-05-02T00:08:06;100092.66;;;11.84;48.76
61113;BME280;47184;57.998;56.184;2023-05-02T00:10:32;100082.38;;;11.89;48.74
61113;BME280;47184;57.998;56.184;2023-05-02T00:12:59;100048.81;;;11.65;48.37
61113;BME280;47184;57.998;56.184;2023-05-02T00:15:25;100102.22;;;11.85;48.51
61113;BME280;47184;57.998;56.184;2023-05-02T00:17:54;100074.25;;;11.66;48.73
61113;BME280;47184;57.998;56.184;2023-05-02T00:20:20;100102.72;;;11.97;48.27
61113;BME280;47184;57.998;56.184;2023-05-02T00:22:47;100100.06;;;11.97;48.14
61113;BME280;47184;57.998;56.184;2023-05-02T00:25:13;100118.44;;;11.90;48.43
61113;BME280;47184;57.998;56.184;2023-05-02T00:27:43;100105.06;;;11.92;48.97
61113;BME280;47184;57.998;56.184;2023-05-02T00:30:12;100114.63;;;12.01;48.47
61113;BME280;47184;57.998;56.184;2023-05-02T00:32:40;100083.00;;;11.75;49.04
61113;BME280;47184;57.998;56.184;2023-05-02T00:35:07;100103.88;;;11.95;48.30
61113;BME280;47184;57.998;56.184;2023-05-02T00:37:33;100117.59;;;11.98;48.60
61113;BME280;47184;57.998;56.184;2023-05-02T00:40:00;100114.47;;;11.95;48.52
61113;BME280;47184;57.998;56.184;2023-05-02T00:42:27;100115.47;;;11.94;48.48
61113;BME280;47184;57.998;56.184;2023-05-02T00:44:56;100104.38;;;11.98;48.76
61113;BME280;47184;57.998;56.184;2023-05-02T00:47:22;100119.94;;;11.93;48.73
61113;BME280;47184;57.998;56.184;2023-05-02T00:49:49;100091.31;;;11.88;48.67
61113;BME280;47184;57.998;56.184;2023-05-02T00:52:15;100094.13;;;11.87;48.63
61113;BME280;47184;57.998;56.184;2023-05-02T00:54:42;100103.88;;;11.95;48.57
61113;BME280;47184;57.998;56.184;2023-05-02T00:57:09;100094.44;;;12.00;48.50
61113;BME280;47184;57.998;56.184;2023-05-02T00:59:35;100097.22;;;11.82;49.24
61113;BME280;47184;57.998;56.184;2023-05-02T01:05:09;100107.50;;;11.94;49.04
61113;BME280;47184;57.998;56.184;2023-05-02T01:11:10;100107.81;;;12.07;48.62
61113;BME280;47184;57.998;56.184;2023-05-02T01:13:32;100081.22;;;12.08;48.59
61113;BME280;47184;57.998;56.184;2023-05-02T01:16:00;100100.38;;;12.10;48.47
61113;BME280;47184;57.998;56.184;2023-05-02T01:18:32;100076.41;;;12.04;48.67
61113;BME280;47184;57.998;56.184;2023-05-02T01:21:09;100097.91;;;12.17;48.38
61113;BME280;47184;57.998;56.184;2023-05-02T01:26:50;100089.28;;;12.15;48.71
61113;BME280;47184;57.998;56.184;2023-05-02T01:29:19;100106.97;;;12.23;48.35
61113;BME280;47184;57.998;56.184;2023-05-02T01:31:49;100058.84;;;12.11;48.34
61113;BME280;47184;57.998;56.184;2023-05-02T01:34:18;100103.66;;;12.37;48.12
61113;BME280;47184;57.998;56.184;2023-05-02T01:36:46;100092.56;;;12.33;48.15
61113;BME280;47184;57.998;56.184;2023-05-02T01:39:18;100059.66;;;12.20;47.89
61113;BME280;47184;57.998;56.184;2023-05-02T01:41:49;100104.44;;;12.46;48.30
61113;BME280;47184;57.998;56.184;2023-05-02T01:44:19;100096.66;;;12.44;48.39
61113;BME280;47184;57.998;56.184;2023-05-02T01:46:47;100100.44;;;12.58;47.60
61113;BME280;47184;57.998;56.184;2023-05-02T01:49:15;100100.53;;;12.73;47.80
61113;BME280;47184;57.998;56.184;2023-05-02T01:51:48;100075.22;;;12.70;47.89
61113;BME280;47184;57.998;56.184;2023-05-02T01:54:15;100094.50;;;12.87;47.55
61113;BME280;47184;57.998;56.184;2023-05-02T01:56:42;100086.50;;;12.95;47.20
61113;BME280;47184;57.998;56.184;2023-05-02T01:59:16;100093.69;;;12.86;47.43
61113;BME280;47184;57.998;56.184;2023-05-02T02:01:44;100086.38;;;12.88;47.26
61113;BME280;47184;57.998;56.184;2023-05-02T02:04:12;100089.16;;;12.95;46.98
61113;BME280;47184;57.998;56.184;2023-05-02T02:06:47;100094.94;;;12.99;47.30
61113;BME280;47184;57.998;56.184;2023-05-02T02:09:15;100097.03;;;13.11;46.85
61113;BME280;47184;57.998;56.184;2023-05-02T02:14:36;100109.41;;;13.27;46.77
61113;BME280;47184;57.998;56.184;2023-05-02T02:17:07;100092.66;;;13.27;46.52
61113;BME280;47184;57.998;56.184;2023-05-02T02:19:38;100111.28;;;13.42;46.33
61113;BME280;47184;57.998;56.184;2023-05-02T02:22:07;100094.84;;;13.15;46.82
61113;BME280;47184;57.998;56.184;2023-05-02T02:24:37;100104.69;;;13.37;46.32
61113;BME280;47184;57.998;56.184;2023-05-02T02:27:04;100095.19;;;13.43;46.71
61113;BME280;47184;57.998;56.184;2023-05-02T02:29:30;100093.00;;;13.47;46.54
61113;BME280;47184;57.998;56.184;2023-05-02T02:31:56;100109.09;;;13.45;46.44
61113;BME280;47184;57.998;56.184;2023-05-02T02:34:22;100099.09;;;13.55;46.36
61113;BME280;47184;57.998;56.184;2023-05-02T02:37:17;100091.22;;;13.62;46.06
61113;BME280;47184;57.998;56.184;2023-05-02T02:42:54;100099.06;;;13.78;45.98
61113;BME280;47184;57.998;56.184;2023-05-02T02:45:34;100098.16;;;13.86;45.64
61113;BME280;47184;57.998;56.184;2023-05-02T02:48:32;100100.47;;;14.04;45.71
61113;BME280;47184;57.998;56.184;2023-05-02T02:51:45;100109.03;;;14.14;45.19
61113;BME280;47184;57.998;56.184;2023-05-02T02:54:20;100103.91;;;14.27;44.92
61113;BME280;47184;57.998;56.184;2023-05-02T02:56:55;100112.06;;;14.41;44.73
61113;BME280;47184;57.998;56.184;2023-05-02T02:59:27;100106.56;;;14.42;44.69
61113;BME280;47184;57.998;56.184;2023-05-02T03:02:21;100118.69;;;14.59;44.44
61113;BME280;47184;57.998;56.184;2023-05-02T03:04:50;100079.75;;;14.52;43.98
61113;BME280;47184;57.998;56.184;2023-05-02T03:07:18;100098.97;;;14.69;43.87
61113;BME280;47184;57.998;56.184;2023-05-02T03:09:46;100108.78;;;14.83;43.82
61113;BME280;47184;57.998;56.184;2023-05-02T03:12:20;100082.19;;;14.83;43.62
61113;BME280;47184;57.998;56.184;2023-05-02T03:14:49;100121.81;;;15.14;43.13
61113;BME280;47184;57.998;56.184;2023-05-02T03:17:16;100110.00;;;15.17;43.25
61113;BME280;47184;57.998;56.184;2023-05-02T03:19:42;100127.41;;;15.19;43.00
61113;BME280;47184;57.998;56.184;2023-05-02T03:22:08;100136.81;;;15.36;42.73
61113;BME280;47184;57.998;56.184;2023-05-02T03:24:35;100131.94;;;15.40;42.96
61113;BME280;47184;57.998;56.184;2023-05-02T03:27:02;100135.44;;;15.62;42.63
61113;BME280;47184;57.998;56.184;2023-05-02T03:29:35;100136.59;;;15.74;42.49
61113;BME280;47184;57.998;56.184;2023-05-02T03:32:01;100124.16;;;15.60;42.21
61113;BME280;47184;57.998;56.184;2023-05-02T03:34:28;100091.13;;;15.33;42.13
61113;BME280;47184;57.998;56.184;2023-05-02T03:36:54;100135.72;;;15.89;42.00
61113;BME280;47184;57.998;56.184;2023-05-02T03:39:21;100125.91;;;15.96;41.75
61113;BME280;47184;57.998;56.184;2023-05-02T03:41:48;100130.41;;;16.17;41.49
61113;BME280;47184;57.998;56.184;2023-05-02T03:44:18;100134.41;;;16.34;41.09
61113;BME280;47184;57.998;56.184;2023-05-02T03:46:44;100140.91;;;16.25;41.37
61113;BME280;47184;57.998;56.184;2023-05-02T03:49:11;100130.94;;;16.33;40.91
61113;BME280;47184;57.998;56.184;2023-05-02T03:51:42;100127.69;;;16.45;40.85
61113;BME280;47184;57.998;56.184;2023-05-02T03:54:08;100118.13;;;16.57;40.79
61113;BME280;47184;57.998;56.184;2023-05-02T03:56:38;100117.28;;;16.50;40.69
61113;BME280;47184;57.998;56.184;2023-05-02T03:59:16;100113.75;;;16.77;40.34
61113;BME280;47184;57.998;56.184;2023-05-02T04:01:43;100118.47;;;16.75;40.35
61113;BME280;47184;57.998;56.184;2023-05-02T04:04:12;100126.56;;;16.95;40.14
61113;BME280;47184;57.998;56.184;2023-05-02T04:06:45;100128.53;;;17.28;39.71
61113;BME280;47184;57.998;56.184;2023-05-02T04:09:11;100124.44;;;17.39;39.73
61113;BME280;47184;57.998;56.184;2023-05-02T04:11:52;100113.34;;;17.35;39.15
61113;BME280;47184;57.998;56.184;2023-05-02T04:14:19;100111.47;;;17.29;39.32
61113;BME280;47184;57.998;56.184;2023-05-02T04:16:48;100126.75;;;17.62;39.11
61113;BME280;47184;57.998;56.184;2023-05-02T04:19:18;100131.06;;;17.63;39.23
61113;BME280;47184;57.998;56.184;2023-05-02T04:21:44;100130.09;;;17.77;38.99
61113;BME280;47184;57.998;56.184;2023-05-02T04:24:12;100132.75;;;18.03;38.74
61113;BME280;47184;57.998;56.184;2023-05-02T04:26:39;100136.25;;;18.17;38.54
61113;BME280;47184;57.998;56.184;2023-05-02T04:29:10;100125.34;;;18.19;38.27
61113;BME280;47184;57.998;56.184;2023-05-02T04:31:37;100132.53;;;18.38;38.02
61113;BME280;47184;57.998;56.184;2023-05-02T04:34:05;100114.44;;;18.34;38.44
61113;BME280;47184;57.998;56.184;2023-05-02T04:36:38;100146.03;;;18.63;37.80
61113;BME280;47184;57.998;56.184;2023-05-02T04:39:07;100151.16;;;18.65;37.73
61113;BME280;47184;57.998;56.184;2023-05-02T04:41:37;100124.66;;;18.70;37.62
61113;BME280;47184;57.998;56.184;2023-05-02T04:44:06;100144.53;;;18.94;37.57
61113;BME280;47184;57.998;56.184;2023-05-02T04:46:33;100139.72;;;19.16;37.16
61113;BME280;47184;57.998;56.184;2023-05-02T04:48:59;100117.78;;;19.32;37.06
61113;BME280;47184;57.998;56.184;2023-05-02T04:51:25;100132.97;;;19.38;36.81
61113;BME280;47184;57.998;56.184;2023-05-02T04:53:53;100124.13;;;19.38;36.52
61113;BME280;47184;57.998;56.184;2023-05-02T04:56:19;100152.84;;;19.62;36.50
61113;BME280;47184;57.998;56.184;2023-05-02T04:58:47;100149.66;;;19.78;36.27
61113;BME280;47184;57.998;56.184;2023-05-02T05:01:13;100100.91;;;19.63;36.01
61113;BME280;47184;57.998;56.184;2023-05-02T05:03:40;100137.69;;;20.06;35.94
61113;BME280;47184;57.998;56.184;2023-05-02T05:06:07;100120.28;;;20.15;35.73
61113;BME280;47184;57.998;56.184;2023-05-02T05:08:33;100129.84;;;20.29;35.44
61113;BME280;47184;57.998;56.184;2023-05-02T05:11:00;100149.56;;;20.60;35.50
61113;BME280;47184;57.998;56.184;2023-05-02T05:13:27;100121.25;;;20.64;35.04
61113;BME280;47184;57.998;56.184;2023-05-02T05:15:53;100153.84;;;20.86;34.86
61113;BME280;47184;57.998;56.184;2023-05-02T05:18:24;100150.19;;;20.99;34.85
61113;BME280;47184;57.998;56.184;2023-05-02T05:20:50;100165.78;;;20.90;34.69
61113;BME280;47184;57.998;56.184;2023-05-02T05:23:16;100116.03;;;20.88;34.22
61113;BME280;47184;57.998;56.184;2023-05-02T05:25:43;100139.34;;;21.06;34.26
61113;BME280;47184;57.998;56.184;2023-05-02T05:28:09;100133.91;;;21.12;34.26
61113;BME280;47184;57.998;56.184;2023-05-02T05:30:37;100140.34;;;21.41;33.93
61113;BME280;47184;57.998;56.184;2023-05-02T05:33:07;100132.97;;;21.79;33.81
61113;BME280;47184;57.998;56.184;2023-05-02T05:35:34;100144.13;;;22.06;33.25
61113;BME280;47184;57.998;56.184;2023-05-02T05:38:01;100124.94;;;22.02;32.71
61113;BME280;47184;57.998;56.184;2023-05-02T05:40:32;100140.97;;;22.67;32.35
61113;BME280;47184;57.998;56.184;2023-05-02T05:42:59;100135.72;;;23.41;31.32
61113;BME280;47184;57.998;56.184;2023-05-02T05:45:30;100141.09;;;23.87;30.58
61113;BME280;47184;57.998;56.184;2023-05-02T05:47:56;100124.59;;;24.00;30.06
61113;BME280;47184;57.998;56.184;2023-05-02T05:50:25;100142.06;;;24.48;29.51
61113;BME280;47184;57.998;56.184;2023-05-02T05:52:52;100105.47;;;24.57;28.98
61113;BME280;47184;57.998;56.184;2023-05-02T05:55:19;100125.19;;;25.51;28.38
61113;BME280;47184;57.998;56.184;2023-05-02T05:57:47;100136.03;;;26.15;27.19
61113;BME280;47184;57.998;56.184;2023-05-02T06:00:14;100134.16;;;26.58;26.26
61113;BME280;47184;57.998;56.184;2023-05-02T06:02:47;100138.19;;;27.13;26.04
61113;BME280;47184;57.998;56.184;2023-05-02T06:05:22;100127.72;;;27.98;25.32
61113;BME280;47184;57.998;56.184;2023-05-02T06:07:50;100135.38;;;28.97;24.01
61113;BME280;47184;57.998;56.184;2023-05-02T06:10:16;100132.25;;;29.63;23.58
61113;BME280;47184;57.998;56.184;2023-05-02T06:12:43;100142.41;;;29.52;22.95
61113;BME280;47184;57.998;56.184;2023-05-02T06:15:11;100130.66;;;29.91;22.56
61113;BME280;47184;57.998;56.184;2023-05-02T06:17:39;100100.53;;;30.11;22.33
61113;BME280;47184;57.998;56.184;2023-05-02T06:20:05;100115.00;;;30.36;22.07
61113;BME280;47184;57.998;56.184;2023-05-02T06:22:32;100109.28;;;31.61;20.80
61113;BME280;47184;57.998;56.184;2023-05-02T06:24:58;100121.50;;;32.84;20.14
61113;BME280;47184;57.998;56.184;2023-05-02T06:27:25;100123.72;;;32.96;19.32
61113;BME280;47184;57.998;56.184;2023-05-02T06:29:52;100097.63;;;32.48;19.22
61113;BME280;47184;57.998;56.184;2023-05-02T06:32:18;100118.22;;;32.82;19.03
61113;BME280;47184;57.998;56.184;2023-05-02T06:34:46;100105.66;;;33.67;18.78
61113;BME280;47184;57.998;56.184;2023-05-02T06:37:12;100117.44;;;34.21;18.30
61113;BME280;47184;57.998;56.184;2023-05-02T06:39:38;100112.88;;;34.57;17.98
61113;BME280;47184;57.998;56.184;2023-05-02T06:42:04;100106.91;;;33.92;17.67
61113;BME280;47184;57.998;56.184;2023-05-02T06:44:32;100092.81;;;33.99;17.84
61113;BME280;47184;57.998;56.184;2023-05-02T06:46:58;100104.78;;;35.09;17.39
61113;BME280;47184;57.998;56.184;2023-05-02T06:49:25;100115.56;;;34.88;17.14
61113;BME280;47184;57.998;56.184;2023-05-02T06:51:51;100129.53;;;33.75;17.54
61113;BME280;47184;57.998;56.184;2023-05-02T06:54:17;100123.97;;;33.58;18.08
61113;BME280;47184;57.998;56.184;2023-05-02T06:56:43;100110.28;;;35.26;17.16
61113;BME280;47184;57.998;56.184;2023-05-02T06:59:10;100091.69;;;35.58;16.58
61113;BME280;47184;57.998;56.184;2023-05-02T07:01:36;100108.66;;;35.34;16.69
61113;BME280;47184;57.998;56.184;2023-05-02T07:04:02;100112.72;;;35.54;16.43
61113;BME280;47184;57.998;56.184;2023-05-02T07:06:31;100112.63;;;35.88;16.03
61113;BME280;47184;57.998;56.184;2023-05-02T07:08:58;100115.94;;;35.64;16.95
61113;BME280;47184;57.998;56.184;2023-05-02T07:11:24;100103.13;;;35.86;16.25
61113;BME280;47184;57.998;56.184;2023-05-02T07:13:50;100093.03;;;36.07;16.17
61113;BME280;47184;57.998;56.184;2023-05-02T07:16:17;100118.97;;;36.36;15.43
61113;BME280;47184;57.998;56.184;2023-05-02T07:18:43;100121.56;;;35.68;16.31
61113;BME280;47184;57.998;56.184;2023-05-02T07:21:11;100123.84;;;35.40;16.32
61113;BME280;47184;57.998;56.184;2023-05-02T07:23:38;100111.56;;;35.20;16.98
61113;BME280;47184;57.998;56.184;2023-05-02T07:26:04;100112.41;;;36.19;16.38
61113;BME280;47184;57.998;56.184;2023-05-02T07:28:30;100123.25;;;36.16;16.40
61113;BME280;47184;57.998;56.184;2023-05-02T07:30:57;100122.78;;;35.96;16.72
61113;BME280;47184;57.998;56.184;2023-05-02T07:33:23;100112.78;;;35.92;16.26
61113;BME280;47184;57.998;56.184;2023-05-02T07:35:50;100121.72;;;35.45;16.26
61113;BME280;47184;57.998;56.184;2023-05-02T07:38:16;100121.84;;;34.80;17.16
61113;BME280;47184;57.998;56.184;2023-05-02T07:40:43;100119.91;;;34.97;17.04
61113;BME280;47184;57.998;56.184;2023-05-02T07:43:11;100120.78;;;35.50;16.69
61113;BME280;47184;57.998;56.184;2023-05-02T07:45:37;100125.31;;;35.29;16.85
61113;BME280;47184;57.998;56.184;2023-05-02T07:48:04;100110.31;;;34.60;17.14
61113;BME280;47184;57.998;56.184;2023-05-02T07:50:30;100119.41;;;33.53;18.22
61113;BME280;47184;57.998;56.184;2023-05-02T07:52:56;100126.44;;;32.82;18.82
61113;BME280;47184;57.998;56.184;2023-05-02T07:55:22;100125.28;;;32.47;19.01
61113;BME280;47184;57.998;56.184;2023-05-02T07:57:51;100114.03;;;31.69;20.02
61113;BME280;47184;57.998;56.184;2023-05-02T08:00:18;100129.94;;;32.00;19.47
61113;BME280;47184;57.998;56.184;2023-05-02T08:02:44;100134.25;;;33.02;18.96
61113;BME280;47184;57.998;56.184;2023-05-02T08:05:10;100132.03;;;33.86;18.34
61113;BME280;47184;57.998;56.184;2023-05-02T08:07:38;100132.59;;;34.59;17.97
61113;BME280;47184;57.998;56.184;2023-05-02T08:10:05;100121.41;;;35.30;17.61
61113;BME280;47184;57.998;56.184;2023-05-02T08:12:31;100131.06;;;36.43;16.96
61113;BME280;47184;57.998;56.184;2023-05-02T08:14:57;100127.66;;;36.00;16.54
61113;BME280;47184;57.998;56.184;2023-05-02T08:17:24;100137.75;;;35.61;16.79
61113;BME280;47184;57.998;56.184;2023-05-02T08:19:53;100150.97;;;35.76;17.16
61113;BME280;47184;57.998;56.184;2023-05-02T08:22:19;100150.16;;;35.76;16.75
61113;BME280;47184;57.998;56.184;2023-05-02T08:24:46;100138.34;;;35.84;17.03
61113;BME280;47184;57.998;56.184;2023-05-02T08:27:12;100142.25;;;36.38;16.93
61113;BME280;47184;57.998;56.184;2023-05-02T08:29:38;100126.03;;;37.80;15.76
61113;BME280;47184;57.998;56.184;2023-05-02T08:32:04;100138.69;;;37.48;15.82
61113;BME280;47184;57.998;56.184;2023-05-02T08:34:30;100149.63;;;36.08;16.15
61113;BME280;47184;57.998;56.184;2023-05-02T08:36:58;100144.72;;;34.66;17.70
61113;BME280;47184;57.998;56.184;2023-05-02T08:39:24;100142.03;;;34.13;18.23
61113;BME280;47184;57.998;56.184;2023-05-02T08:41:50;100148.16;;;34.10;18.35
61113;BME280;47184;57.998;56.184;2023-05-02T08:44:17;100128.47;;;33.40;19.03
61113;BME280;47184;57.998;56.184;2023-05-02T08:46:43;100115.94;;;33.62;19.02
61113;BME280;47184;57.998;56.184;2023-05-02T08:49:10;100110.91;;;34.09;18.61
61113;BME280;47184;57.998;56.184;2023-05-02T08:51:36;100141.50;;;34.73;18.00
61113;BME280;47184;57.998;56.184;2023-05-02T08:54:05;100140.63;;;35.21;17.96
61113;BME280;47184;57.998;56.184;2023-05-02T08:56:34;100147.09;;;36.50;17.03
61113;BME280;47184;57.998;56.184;2023-05-02T08:59:00;100149.84;;;36.50;16.98
61113;BME280;47184;57.998;56.184;2023-05-02T09:01:29;100156.84;;;36.68;16.31
61113;BME280;47184;57.998;56.184;2023-05-02T09:03:56;100140.50;;;36.72;16.57
61113;BME280;47184;57.998;56.184;2023-05-02T09:06:25;100154.00;;;36.86;16.61
61113;BME280;47184;57.998;56.184;2023-05-02T09:08:52;100144.59;;;37.16;16.63
61113;BME280;47184;57.998;56.184;2023-05-02T09:11:20;100176.50;;;36.58;16.59
61113;BME280;47184;57.998;56.184;2023-05-02T09:13:49;100163.13;;;37.07;16.73
61113;BME280;47184;57.998;56.184;2023-05-02T09:16:23;100157.78;;;37.53;16.34
61113;BME280;47184;57.998;56.184;2023-05-02T09:18:52;100162.81;;;37.84;15.51
61113;BME280;47184;57.998;56.184;2023-05-02T09:21:24;100161.94;;;37.92;15.58
61113;BME280;47184;57.998;56.184;2023-05-02T09:23:53;100170.59;;;38.03;15.74
61113;BME280;47184;57.998;56.184;2023-05-02T09:26:28;100167.06;;;38.27;15.57
61113;BME280;47184;57.998;56.184;2023-05-02T09:29:00;100171.56;;;39.57;14.79
61113;BME280;47184;57.998;56.184;2023-05-02T09:31:31;100175.19;;;40.02;14.05
61113;BME280;47184;57.998;56.184;2023-05-02T09:34:12;100176.31;;;39.04;14.76
61113;BME280;47184;57.998;56.184;2023-05-02T09:39:15;100147.16;;;38.09;15.22
61113;BME280;47184;57.998;56.184;2023-05-02T09:41:43;100167.63;;;39.30;14.89
61113;BME280;47184;57.998;56.184;2023-05-02T09:44:11;100180.69;;;40.30;14.22
61113;BME280;47184;57.998;56.184;2023-05-02T09:46:49;100171.25;;;40.03;14.47
61113;BME280;47184;57.998;56.184;2023-05-02T09:49:17;100177.44;;;39.16;14.97
61113;BME280;47184;57.998;56.184;2023-05-02T09:51:45;100174.13;;;38.61;15.19
61113;BME280;47184;57.998;56.184;2023-05-02T09:54:12;100175.53;;;37.97;15.34
61113;BME280;47184;57.998;56.184;2023-05-02T09:56:51;100172.69;;;37.52;15.52
61113;BME280;47184;57.998;56.184;2023-05-02T09:59:18;100171.31;;;37.37;15.79
61113;BME280;47184;57.998;56.184;2023-05-02T10:01:44;100165.34;;;36.55;16.41
61113;BME280;47184;57.998;56.184;2023-05-02T10:04:14;100151.34;;;36.98;16.28
61113;BME280;47184;57.998;56.184;2023-05-02T10:06:44;100146.91;;;37.89;15.78
61113;BME280;47184;57.998;56.184;2023-05-02T10:09:14;100159.16;;;38.99;15.02
61113;BME280;47184;57.998;56.184;2023-05-02T10:11:43;100164.00;;;38.53;14.84
61113;BME280;47184;57.998;56.184;2023-05-02T10:14:11;100163.22;;;37.95;15.49
61113;BME280;47184;57.998;56.184;2023-05-02T10:16:54;100163.63;;;38.17;15.24
61113;BME280;47184;57.998;56.184;2023-05-02T10:22:09;100164.59;;;38.58;15.01
61113;BME280;47184;57.998;56.184;2023-05-02T10:24:38;100179.75;;;37.95;15.26
61113;BME280;47184;57.998;56.184;2023-05-02T10:27:05;100134.66;;;37.45;15.09
61113;BME280;47184;57.998;56.184;2023-05-02T10:29:32;100141.34;;;36.93;15.54
61113;BME280;47184;57.998;56.184;2023-05-02T10:32:00;100151.84;;;37.00;15.72
61113;BME280;47184;57.998;56.184;2023-05-02T10:34:31;100154.31;;;37.14;16.14
61113;BME280;47184;57.998;56.184;2023-05-02T10:36:58;100149.47;;;36.05;16.54
61113;BME280;47184;57.998;56.184;2023-05-02T10:39:28;100141.16;;;36.31;15.91
61113;BME280;47184;57.998;56.184;2023-05-02T10:41:57;100131.25;;;36.38;15.91
61113;BME280;47184;57.998;56.184;2023-05-02T10:44:34;100147.25;;;35.89;16.23
61113;BME280;47184;57.998;56.184;2023-05-02T10:47:01;100145.19;;;35.60;16.64
61113;BME280;47184;57.998;56.184;2023-05-02T10:50:02;100122.19;;;35.47;16.40
61113;BME280;47184;57.998;56.184;2023-05-02T10:52:38;100137.88;;;35.12;16.91
61113;BME280;47184;57.998;56.184;2023-05-02T10:55:17;100141.69;;;34.94;17.03
61113;BME280;47184;57.998;56.184;2023-05-02T11:00:29;100137.53;;;35.83;16.02
61113;BME280;47184;57.998;56.184;2023-05-02T11:02:57;100149.19;;;35.97;15.83
61113;BME280;47184;57.998;56.184;2023-05-02T11:05:24;100124.38;;;36.15;15.61
61113;BME280;47184;57.998;56.184;2023-05-02T11:10:42;100143.78;;;37.37;15.25
61113;BME280;47184;57.998;56.184;2023-05-02T11:13:11;100117.66;;;37.22;14.93
61113;BME280;47184;57.998;56.184;2023-05-02T11:20:35;100141.03;;;37.16;15.07
61113;BME280;47184;57.998;56.184;2023-05-02T11:25:45;100139.06;;;37.58;14.59
61113;BME280;47184;57.998;56.184;2023-05-02T11:31:05;100122.81;;;37.03;14.14
61113;BME280;47184;57.998;56.184;2023-05-02T11:33:31;100129.53;;;36.93;14.12
61113;BME280;47184;57.998;56.184;2023-05-02T11:35:57;100135.34;;;36.62;14.62
61113;BME280;47184;57.998;56.184;2023-05-02T11:38:25;100133.97;;;36.77;14.24
61113;BME280;47184;57.998;56.184;2023-05-02T11:40:57;100136.88;;;36.51;14.33
61113;BME280;47184;57.998;56.184;2023-05-02T11:43:26;100139.81;;;35.90;14.23
61113;BME280;47184;57.998;56.184;2023-05-02T11:45:53;100140.63;;;35.12;14.73
61113;BME280;47184;57.998;56.184;2023-05-02T11:48:22;100124.44;;;34.93;14.72
61113;BME280;47184;57.998;56.184;2023-05-02T11:50:52;100133.16;;;34.87;14.88
61113;BME280;47184;57.998;56.184;2023-05-02T11:53:20;100139.97;;;34.49;15.13
61113;BME280;47184;57.998;56.184;2023-05-02T11:55:51;100127.81;;;34.90;15.02
61113;BME280;47184;57.998;56.184;2023-05-02T11:58:20;100141.91;;;35.06;14.61
61113;BME280;47184;57.998;56.184;2023-05-02T12:00:48;100144.47;;;33.92;14.58
61113;BME280;47184;57.998;56.184;2023-05-02T12:03:31;100144.69;;;33.37;15.21
61113;BME280;47184;57.998;56.184;2023-05-02T12:06:27;100144.88;;;32.90;15.30
61113;BME280;47184;57.998;56.184;2023-05-02T12:09:05;100148.44;;;32.77;15.46
61113;BME280;47184;57.998;56.184;2023-05-02T12:11:32;100157.56;;;32.59;15.56
61113;BME280;47184;57.998;56.184;2023-05-02T12:13:59;100132.53;;;32.38;15.77
61113;BME280;47184;57.998;56.184;2023-05-02T12:16:27;100151.16;;;32.49;15.84
61113;BME280;47184;57.998;56.184;2023-05-02T12:18:53;100153.78;;;33.10;15.28
61113;BME280;47184;57.998;56.184;2023-05-02T12:21:22;100146.34;;;34.36;14.64
61113;BME280;47184;57.998;56.184;2023-05-02T12:23:49;100149.69;;;34.56;14.37
61113;BME280;47184;57.998;56.184;2023-05-02T12:26:23;100136.84;;;34.34;14.80
61113;BME280;47184;57.998;56.184;2023-05-02T12:28:55;100158.34;;;34.49;14.44
61113;BME280;47184;57.998;56.184;2023-05-02T12:31:23;100152.81;;;33.87;14.64
61113;BME280;47184;57.998;56.184;2023-05-02T12:33:50;100157.50;;;33.64;14.93
61113;BME280;47184;57.998;56.184;2023-05-02T12:36:17;100161.84;;;33.87;14.74
61113;BME280;47184;57.998;56.184;2023-05-02T12:39:10;100151.59;;;33.34;14.86
61113;BME280;47184;57.998;56.184;2023-05-02T12:41:37;100144.81;;;32.95;14.82
61113;BME280;47184;57.998;56.184;2023-05-02T12:44:05;100155.31;;;33.16;15.34
61113;BME280;47184;57.998;56.184;2023-05-02T12:46:31;100148.31;;;33.10;15.30
61113;BME280;47184;57.998;56.184;2023-05-02T12:49:07;100147.59;;;32.90;15.56
61113;BME280;47184;57.998;56.184;2023-05-02T12:51:34;100112.69;;;32.87;15.87
61113;BME280;47184;57.998;56.184;2023-05-02T12:54:02;100147.72;;;33.49;15.06
61113;BME280;47184;57.998;56.184;2023-05-02T12:56:28;100154.59;;;33.60;15.74
61113;BME280;47184;57.998;56.184;2023-05-02T12:58:57;100135.97;;;33.35;15.36
61113;BME280;47184;57.998;56.184;2023-05-02T13:01:31;100148.72;;;33.53;15.53
61113;BME280;47184;57.998;56.184;2023-05-02T13:03:58;100148.66;;;33.89;15.01
61113;BME280;47184;57.998;56.184;2023-05-02T13:06:24;100145.38;;;34.41;14.91
61113;BME280;47184;57.998;56.184;2023-05-02T13:08:51;100149.09;;;34.36;14.70
61113;BME280;47184;57.998;56.184;2023-05-02T13:11:17;100150.22;;;33.82;15.20
61113;BME280;47184;57.998;56.184;2023-05-02T13:13:44;100148.03;;;33.47;15.49
61113;BME280;47184;57.998;56.184;2023-05-02T13:16:10;100151.31;;;33.36;15.90
61113;BME280;47184;57.998;56.184;2023-05-02T13:18:36;100149.41;;;33.22;15.53
61113;BME280;47184;57.998;56.184;2023-05-02T13:21:03;100152.22;;;32.95;15.52
61113;BME280;47184;57.998;56.184;2023-05-02T13:23:29;100153.63;;;32.78;15.65
61113;BME280;47184;57.998;56.184;2023-05-02T13:25:55;100146.47;;;32.36;16.05